Motte Rimrock Reserve, California Weather observations

Data are for 10 minute period ending at time listed.
 Day   Time   Solar   Ave.   Ave.  Ave.  Vector  Max.   Baro.   Total    
  of    of     Rad.   Air    Rel.  Wind   Wind   Wind  Press.  Precip.   
Year   Day            Temp.  Hum.  Speed  Dir.   Gust                    
2015   (PST)  Kw/m2    F      %     mph   deg.    mph    mb.     in.     
-------------------------------------------------------------------------
  27    8:00   0.14   52.4    85    8.3    95    11.1   953.7    0.00 
  27    8:10   0.16   53.1    83    8.7    92    11.6   953.8    0.00 
  27    8:20   0.24   53.8    82    7.4    92    10.2   953.9    0.00 
  27    8:30   0.26   54.5    81    6.0   100     8.3   954.1    0.00 
  27    8:40   0.31   55.1    80    5.8   100     8.4   954.1    0.00 
  27    8:50   0.31   55.1    81    6.6    88     8.8   954.1    0.00 
  27    9:00   0.38   55.7    80    6.6    88     9.2   954.2    0.00 
  27    9:10   0.40   56.3    80    7.5    90    10.1   954.4    0.00 
  27    9:20   0.43   56.7    78    7.6    82    10.4   954.5    0.00 
  27    9:30   0.47   57.0    78    7.8    86     9.1   954.6    0.00 
  27    9:40   0.46   57.6    77    7.4    86     9.9   954.6    0.00 
  27    9:50   0.47   57.8    76    7.1    89     9.5   954.6    0.00 
  27   10:00   0.49   58.2    75    6.7    92     8.6   954.6    0.00 
  27   10:10   0.51   58.5    72    6.4    81     9.1   954.5    0.00 
  27   10:20   0.53   59.4    68    4.9    72     6.9   954.5    0.00 
  27   10:30   0.56   60.1    66    4.3    87     6.3   954.6    0.00 
  27   10:40   0.56   61.6    62    3.4   123     5.7   954.7    0.00 
  27   10:50   0.57   62.2    60    2.6   157     5.1   954.7    0.00 
  27   11:00   0.60   62.8    60    2.5   162     6.7   954.7    0.00 
  27   11:10   0.58   62.5    63    5.3   135     8.3   954.5    0.00 
  27   11:20   0.60   62.7    61    3.0   145     8.7   954.4    0.00 
  27   11:30   0.63   63.7    60    3.9   129     7.6   954.3    0.00 
  27   11:40   0.64   63.5    58    5.0   110     7.6   954.3    0.00 
  27   11:50   0.63   63.6    56    3.6   110     6.7   954.2    0.00 
  27   12:00   0.63   64.2    56    1.8    81     4.0   954.0    0.00 
  27   12:10   0.64   65.1    54    3.4   154    10.1   953.8    0.00 
  27   12:20   0.64   64.6    51    2.2   158     4.9   953.7    0.00 
  27   12:30   0.64   65.3    50    3.5   118     7.2   953.6    0.00 
  27   12:40   0.65   65.4    48    2.4   141     6.7   953.4    0.00 
  27   12:50   0.39   64.9    48    4.1   142     7.5   953.3    0.00 
  27   13:00   0.69   65.5    47    2.8   125     6.6   953.3    0.00 
  27   13:10   0.63   66.0    44    4.6   180     7.8   953.3    0.00 
  27   13:20   0.61   65.4    44    3.1   186     8.0   953.4    0.00 
  27   13:30   0.52   65.1    46    5.9   226     9.1   953.3    0.00 
  27   13:40   0.55   65.3    46    5.3   236     8.7   953.2    0.00 
  27   13:50   0.55   66.0    44    3.4   294     8.7   953.2    0.00 
  27   14:00   0.55   65.9    44    4.6   268     9.1   953.2    0.00 
  27   14:10   0.52   65.9    42    3.0   302     8.5   953.2    0.00 
  27   14:20   0.48   66.6    40    2.4   160     4.0   953.2    0.00 
  27   14:30   0.47   67.4    41    1.4   349     3.6   953.1    0.00 
  27   14:40   0.48   67.5    42    3.4   181     6.6   953.1    0.00 
  27   14:50   0.26   65.5    46    4.0   158     7.5   953.1    0.00 
  27   15:00   0.41   66.1    46    4.3   223     7.4   953.1    0.00 
  27   15:10   0.17   65.2    47    4.4   204     6.1   953.2    0.00 
  27   15:20   0.35   65.2    47    3.0   193     4.1   953.2    0.00 
  27   15:30   0.20   65.9    45    1.3   197     3.4   953.2    0.00 
  27   15:40   0.13   66.0    45    0.4   219     2.3   953.3    0.00 
  27   15:50   0.32   66.1    46    3.4   309     6.4   953.3    0.00 
  27   16:00   0.18   65.2    48    4.7   306     7.2   953.3    0.00 
  27   16:10   0.09   64.4    49    4.4   293     5.8   953.3    0.00 
  27   16:20   0.06   63.9    51    3.9   290     5.0   953.3    0.00 
  27   16:30   0.06   63.6    53    4.6   296     6.1   953.3    0.00 
  27   16:40   0.03   62.7    58    7.0   292     9.7   953.2    0.00 
  27   16:50   0.04   62.0    62    6.5   294     8.6   953.1    0.00 
  27   17:00   0.05   62.2    61    5.9   298     9.1   953.0    0.00 
  27   17:10   0.02   61.4    62    7.3   299     9.3   952.9    0.00 
  27   17:20   0.01   60.8    62    8.2   301    10.3   952.8    0.00 
  27   17:30   0.00   60.2    62    8.5   299    10.2   952.7    0.00 
  27   17:40   0.00   59.9    62    8.9   300    10.4   952.6    0.00 
  27   17:50   0.00   59.3    64    8.7   296    10.5   952.7    0.00 
  27   18:00   0.00   58.8    64    9.4   296    11.0   952.8    0.00 
  27   18:10   0.00   58.7    63    9.8   296    12.1   952.8    0.00 
  27   18:20   0.00   58.9    63   10.5   301    12.8   952.8    0.00 
  27   18:30   0.00   58.9    64   10.2   301    12.6   952.9    0.00 
  27   18:40   0.00   58.5    66    9.8   302    12.3   953.0    0.00 
  27   18:50   0.00   58.4    67    9.5   304    11.8   953.0    0.00 
  27   19:00   0.00   58.2    67    9.2   307    11.5   953.2    0.00 
  27   19:10   0.00   57.6    69    9.1   307    11.3   953.2    0.00 
  27   19:20   0.00   56.8    71    7.3   321    10.2   953.3    0.00 
  27   19:30   0.00   56.6    72    6.4    18    10.0   953.3    0.00 
  27   19:40   0.00   57.2    70    5.3     5     7.0   953.4    0.00 
  27   19:50   0.00   57.1    71    6.9     5     8.4   953.4    0.00 
  27   20:00   0.00   57.1    70    6.0    17     7.7   953.4    0.00 
  27   20:10   0.00   57.1    70    5.6    20     7.2   953.5    0.00 
  27   20:20   0.00   56.6    71    5.5    19     6.8   953.6    0.00 
  27   20:30   0.00   55.7    72    6.8     0     8.3   953.8    0.00 
  27   20:40   0.00   55.1    73    8.7     1    10.4   953.5    0.00 
  27   20:50   0.00   54.9    74    9.2   356    11.3   953.4    0.00 
  27   21:00   0.00   54.8    74    8.7   356    10.4   953.4    0.00 
  27   21:10   0.00   54.6    74    8.4     1     9.9   953.4    0.00 
  27   21:20   0.00   54.9    74    7.0    12    10.1   953.4    0.00 
  27   21:30   0.00   54.7    74    5.8     8     7.7   953.4    0.00 
  27   21:40   0.00   55.0    74    6.1     6     7.1   953.4    0.00 
  27   21:50   0.00   54.8    74    5.9   359     6.8   953.4    0.00 
  27   22:00   0.00   54.8    75    5.1   359     6.1   953.4    0.00 
  27   22:10   0.00   55.2    74    3.5    26     4.9   953.5    0.00 
  27   22:20   0.00   54.9    74    2.2    56     2.8   953.5    0.00 
  27   22:30   0.00   55.4    73    0.6    55     1.5   953.5    0.00 
  27   22:40   0.00   55.2    74    0.0     0     0.0   953.5    0.00 
  27   22:50   0.00   54.4    76    0.1    36     0.7   953.5    0.00 
  27   23:00   0.00   54.2    76    0.9    35     2.7   953.4    0.00 
  27   23:10   0.00   54.7    75    3.6    40     4.5   953.3    0.00 
  27   23:20   0.00   54.2    76    3.8    40     7.0   953.2    0.00 
  27   23:30   0.00   54.3    75    3.9    35     6.6   953.2    0.00 
  27   23:40   0.00   54.0    76    4.1    38     7.4   953.2    0.00 
  27   23:50   0.00   53.9    77    4.3    36     5.8   953.1    0.00 
  28    0:00   0.00   53.9    77    4.6    38     6.4   953.2    0.00 
  28    0:10   0.00   54.0    77    4.0    31     6.1   953.2    0.00 
  28    0:20   0.00   54.2    76    4.9    10     6.4   953.2    0.00 
  28    0:30   0.00   54.1    77    5.4    30     6.3   953.2    0.00 
  28    0:40   0.00   54.0    77    4.9    33     6.2   953.1    0.00 
  28    0:50   0.00   53.6    78    4.4    43     5.7   953.1    0.00 
  28    1:00   0.00   53.4    78    3.9    47     4.6   953.2    0.00 
  28    1:10   0.00   53.3    78    3.1    47     4.2   953.2    0.00 
  28    1:20   0.00   52.6    80    1.1     2     2.3   953.2    0.00 
  28    1:30   0.00   52.4    81    1.5    26     2.4   953.2    0.00 
  28    1:40   0.00   53.2    78    1.3    21     1.8   953.3    0.00 
  28    1:50   0.00   53.5    78    1.5    40     2.0   953.3    0.00 
  28    2:00   0.00   53.6    77    0.9    69     1.4   953.2    0.00 
  28    2:10   0.00   53.6    77    1.1   124     1.7   953.2    0.00 
  28    2:20   0.00   53.2    78    1.2   139     2.0   953.1    0.00 
  28    2:30   0.00   53.2    78    0.6    34     2.1   952.9    0.00 
  28    2:40   0.00   53.3    77    1.1    21     2.6   953.0    0.00 
  28    2:50   0.00   52.6    79    3.2   319     4.2   953.1    0.00 
  28    3:00   0.00   52.1    80    3.8   330     4.4   953.0    0.00 
  28    3:10   0.00   53.1    76    3.6     2     4.5   952.9    0.00 
  28    3:20   0.00   54.1    72    4.0    30     4.5   952.8    0.00 
  28    3:30   0.00   53.9    73    4.5    33     5.0   952.5    0.00 
  28    3:40   0.00   53.4    75    5.1    15     5.8   952.4    0.00 
  28    3:50   0.00   53.3    74    5.5     2     6.4   952.2    0.00 
  28    4:00   0.00   52.8    76    5.7   360     6.6   952.2    0.00 
  28    4:10   0.00   52.5    76    6.1     1     8.0   952.2    0.00 
  28    4:20   0.00   52.6    74    6.1     7     8.0   952.0    0.00 
  28    4:30   0.00   52.8    72    5.6   357     8.3   952.0    0.00 
  28    4:40   0.00   51.8    73    5.4     2     7.4   952.0    0.00 
  28    4:50   0.00   51.5    70    6.1   349     7.1   952.0    0.00 
  28    5:00   0.00   52.2    67    5.0   349     6.2   952.2    0.00 
  28    5:10   0.00   53.1    60    5.7   350     7.3   952.2    0.00 
  28    5:20   0.00   52.8    59    6.0   360     8.0   952.3    0.00 
  28    5:30   0.00   54.1    54    6.2     8     8.6   952.3    0.00 
  28    5:40   0.00   53.4    57    6.7     0     8.0   952.4    0.00 
  28    5:50   0.00   52.3    60    6.8   360     8.2   952.4    0.00 
  28    6:00   0.00   53.2    55    6.8     1     7.9   952.4    0.00 
  28    6:10   0.00   53.4    56    6.7    11     8.3   952.3    0.00 
  28    6:20   0.00   53.9    54    5.9    29     8.0   952.2    0.00 
  28    6:30   0.00   54.0    57    5.9    27     8.1   952.2    0.00 
  28    6:40   0.00   54.0    58    5.3    30     6.6   952.2    0.00 
  28    6:50   0.00   53.9    59    4.2    41     5.5   952.1    0.00 
  28    7:00   0.00   53.5    60    1.9    48     3.9   952.1    0.00 
  28    7:10   0.01   52.3    62    1.8   198     3.1   952.2    0.00 
  28    7:20   0.03   50.4    66    2.7   260     3.1   952.3    0.00 
  28    7:30   0.07   52.2    63    0.6   262     1.6   952.4    0.00 
  28    7:40   0.11   54.0    60    2.6   278     4.6   952.5    0.00 
  28    7:50   0.12   53.9    60    4.4   318     7.5   952.7    0.00 

Return to Motte Rimrock Reserve graphs page.


Western Regional Climate Center,wrcc@dri.edu